sensor_id;sensor_type;location;lat;lon;timestamp;P1;durP1;ratioP1;P2;durP2;ratioP2
12480;SDS011;6305;48.398;11.762;2023-02-18T00:00:54;3.83;;;2.55;;
12480;SDS011;6305;48.398;11.762;2023-02-18T00:03:22;4.60;;;2.83;;
12480;SDS011;6305;48.398;11.762;2023-02-18T00:05:50;4.38;;;2.50;;
12480;SDS011;6305;48.398;11.762;2023-02-18T00:08:18;3.75;;;2.30;;
12480;SDS011;6305;48.398;11.762;2023-02-18T00:10:45;4.53;;;2.55;;
12480;SDS011;6305;48.398;11.762;2023-02-18T00:13:12;5.18;;;2.60;;
12480;SDS011;6305;48.398;11.762;2023-02-18T00:15:39;3.83;;;2.53;;
12480;SDS011;6305;48.398;11.762;2023-02-18T00:18:06;3.88;;;2.30;;
12480;SDS011;6305;48.398;11.762;2023-02-18T00:20:33;3.88;;;2.60;;
12480;SDS011;6305;48.398;11.762;2023-02-18T00:23:02;5.13;;;2.38;;
12480;SDS011;6305;48.398;11.762;2023-02-18T00:25:29;3.22;;;2.22;;
12480;SDS011;6305;48.398;11.762;2023-02-18T00:27:56;4.35;;;2.33;;
12480;SDS011;6305;48.398;11.762;2023-02-18T00:30:23;3.80;;;2.20;;
12480;SDS011;6305;48.398;11.762;2023-02-18T00:32:50;4.28;;;2.58;;
12480;SDS011;6305;48.398;11.762;2023-02-18T00:35:17;3.08;;;2.30;;
12480;SDS011;6305;48.398;11.762;2023-02-18T00:37:43;3.30;;;2.33;;
12480;SDS011;6305;48.398;11.762;2023-02-18T00:40:12;3.50;;;2.50;;
12480;SDS011;6305;48.398;11.762;2023-02-18T00:42:39;4.65;;;2.70;;
12480;SDS011;6305;48.398;11.762;2023-02-18T00:45:07;4.55;;;3.00;;
12480;SDS011;6305;48.398;11.762;2023-02-18T00:47:34;4.60;;;2.90;;
12480;SDS011;6305;48.398;11.762;2023-02-18T00:50:01;3.38;;;2.40;;
12480;SDS011;6305;48.398;11.762;2023-02-18T00:52:28;3.22;;;2.58;;
12480;SDS011;6305;48.398;11.762;2023-02-18T00:55:01;3.17;;;2.20;;
12480;SDS011;6305;48.398;11.762;2023-02-18T00:57:30;4.68;;;3.10;;
12480;SDS011;6305;48.398;11.762;2023-02-18T00:59:57;3.40;;;2.42;;
12480;SDS011;6305;48.398;11.762;2023-02-18T01:02:24;4.30;;;2.33;;
12480;SDS011;6305;48.398;11.762;2023-02-18T01:04:51;4.18;;;2.50;;
12480;SDS011;6305;48.398;11.762;2023-02-18T01:07:18;3.05;;;2.47;;
12480;SDS011;6305;48.398;11.762;2023-02-18T01:09:45;4.07;;;2.53;;
12480;SDS011;6305;48.398;11.762;2023-02-18T01:12:12;3.45;;;2.55;;
12480;SDS011;6305;48.398;11.762;2023-02-18T01:14:41;5.47;;;2.40;;
12480;SDS011;6305;48.398;11.762;2023-02-18T01:17:08;2.92;;;2.30;;
12480;SDS011;6305;48.398;11.762;2023-02-18T01:19:35;4.25;;;2.60;;
12480;SDS011;6305;48.398;11.762;2023-02-18T01:22:02;4.47;;;2.58;;
12480;SDS011;6305;48.398;11.762;2023-02-18T01:24:31;3.00;;;2.28;;
12480;SDS011;6305;48.398;11.762;2023-02-18T01:26:58;3.42;;;2.25;;
12480;SDS011;6305;48.398;11.762;2023-02-18T01:29:25;3.13;;;2.55;;
12480;SDS011;6305;48.398;11.762;2023-02-18T01:31:55;2.80;;;2.28;;
12480;SDS011;6305;48.398;11.762;2023-02-18T01:34:22;3.30;;;2.50;;
12480;SDS011;6305;48.398;11.762;2023-02-18T01:36:49;2.85;;;2.08;;
12480;SDS011;6305;48.398;11.762;2023-02-18T01:39:16;4.95;;;2.42;;
12480;SDS011;6305;48.398;11.762;2023-02-18T01:41:42;3.92;;;2.38;;
12480;SDS011;6305;48.398;11.762;2023-02-18T01:44:11;3.67;;;2.53;;
12480;SDS011;6305;48.398;11.762;2023-02-18T01:46:39;5.00;;;2.47;;
12480;SDS011;6305;48.398;11.762;2023-02-18T01:49:08;3.72;;;2.10;;
12480;SDS011;6305;48.398;11.762;2023-02-18T01:51:38;3.08;;;2.20;;
12480;SDS011;6305;48.398;11.762;2023-02-18T01:54:07;3.88;;;2.20;;
12480;SDS011;6305;48.398;11.762;2023-02-18T01:56:37;2.45;;;2.17;;
12480;SDS011;6305;48.398;11.762;2023-02-18T01:59:06;3.08;;;2.20;;
12480;SDS011;6305;48.398;11.762;2023-02-18T02:01:37;3.60;;;2.28;;
12480;SDS011;6305;48.398;11.762;2023-02-18T02:04:08;3.92;;;2.22;;
12480;SDS011;6305;48.398;11.762;2023-02-18T02:06:35;3.03;;;2.03;;
12480;SDS011;6305;48.398;11.762;2023-02-18T02:09:04;4.85;;;2.35;;
12480;SDS011;6305;48.398;11.762;2023-02-18T02:11:37;2.72;;;1.98;;
12480;SDS011;6305;48.398;11.762;2023-02-18T02:14:22;2.42;;;2.00;;
12480;SDS011;6305;48.398;11.762;2023-02-18T02:17:01;2.55;;;1.92;;
12480;SDS011;6305;48.398;11.762;2023-02-18T02:19:46;5.70;;;2.40;;
12480;SDS011;6305;48.398;11.762;2023-02-18T02:25:49;4.20;;;2.33;;
12480;SDS011;6305;48.398;11.762;2023-02-18T02:28:45;3.33;;;2.22;;
12480;SDS011;6305;48.398;11.762;2023-02-18T02:31:37;3.00;;;2.20;;
12480;SDS011;6305;48.398;11.762;2023-02-18T02:37:20;4.68;;;2.22;;
12480;SDS011;6305;48.398;11.762;2023-02-18T02:39:55;1.83;;;1.73;;
12480;SDS011;6305;48.398;11.762;2023-02-18T02:42:34;3.30;;;2.38;;
12480;SDS011;6305;48.398;11.762;2023-02-18T02:45:15;2.65;;;2.05;;
12480;SDS011;6305;48.398;11.762;2023-02-18T02:47:52;3.38;;;2.03;;
12480;SDS011;6305;48.398;11.762;2023-02-18T02:50:29;2.63;;;1.80;;
12480;SDS011;6305;48.398;11.762;2023-02-18T02:53:04;5.10;;;2.47;;
12480;SDS011;6305;48.398;11.762;2023-02-18T02:55:38;3.25;;;2.17;;
12480;SDS011;6305;48.398;11.762;2023-02-18T02:58:06;2.83;;;1.85;;
12480;SDS011;6305;48.398;11.762;2023-02-18T03:00:39;3.92;;;2.38;;
12480;SDS011;6305;48.398;11.762;2023-02-18T03:03:17;6.10;;;2.72;;
12480;SDS011;6305;48.398;11.762;2023-02-18T03:06:08;3.75;;;2.53;;
12480;SDS011;6305;48.398;11.762;2023-02-18T03:09:00;3.70;;;2.58;;
12480;SDS011;6305;48.398;11.762;2023-02-18T03:11:37;3.83;;;2.80;;
12480;SDS011;6305;48.398;11.762;2023-02-18T03:14:11;4.25;;;2.75;;
12480;SDS011;6305;48.398;11.762;2023-02-18T03:16:46;4.55;;;2.90;;
12480;SDS011;6305;48.398;11.762;2023-02-18T03:19:19;4.60;;;2.60;;
12480;SDS011;6305;48.398;11.762;2023-02-18T03:21:56;4.70;;;3.00;;
12480;SDS011;6305;48.398;11.762;2023-02-18T03:24:27;3.90;;;2.80;;
12480;SDS011;6305;48.398;11.762;2023-02-18T03:26:58;5.32;;;2.75;;
12480;SDS011;6305;48.398;11.762;2023-02-18T03:29:30;5.28;;;2.90;;
12480;SDS011;6305;48.398;11.762;2023-02-18T03:31:59;3.90;;;2.53;;
12480;SDS011;6305;48.398;11.762;2023-02-18T03:34:31;3.90;;;2.90;;
12480;SDS011;6305;48.398;11.762;2023-02-18T03:37:02;4.38;;;3.15;;
12480;SDS011;6305;48.398;11.762;2023-02-18T03:39:31;6.18;;;2.63;;
12480;SDS011;6305;48.398;11.762;2023-02-18T03:42:02;4.45;;;2.67;;
12480;SDS011;6305;48.398;11.762;2023-02-18T03:44:29;3.67;;;2.80;;
12480;SDS011;6305;48.398;11.762;2023-02-18T03:46:57;4.28;;;2.70;;
12480;SDS011;6305;48.398;11.762;2023-02-18T03:49:24;3.67;;;2.42;;
12480;SDS011;6305;48.398;11.762;2023-02-18T03:51:51;5.20;;;2.70;;
12480;SDS011;6305;48.398;11.762;2023-02-18T03:54:20;3.22;;;2.40;;
12480;SDS011;6305;48.398;11.762;2023-02-18T03:56:47;3.92;;;2.97;;
12480;SDS011;6305;48.398;11.762;2023-02-18T03:59:14;3.65;;;2.53;;
12480;SDS011;6305;48.398;11.762;2023-02-18T04:01:40;3.30;;;2.60;;
12480;SDS011;6305;48.398;11.762;2023-02-18T04:04:08;2.88;;;2.38;;
12480;SDS011;6305;48.398;11.762;2023-02-18T04:06:35;4.30;;;2.70;;
12480;SDS011;6305;48.398;11.762;2023-02-18T04:09:02;3.50;;;2.65;;
12480;SDS011;6305;48.398;11.762;2023-02-18T04:11:34;3.53;;;2.63;;
12480;SDS011;6305;48.398;11.762;2023-02-18T04:14:01;3.65;;;2.53;;
12480;SDS011;6305;48.398;11.762;2023-02-18T04:16:28;4.20;;;2.60;;
12480;SDS011;6305;48.398;11.762;2023-02-18T04:18:55;2.67;;;2.30;;
12480;SDS011;6305;48.398;11.762;2023-02-18T04:21:22;4.18;;;2.78;;
12480;SDS011;6305;48.398;11.762;2023-02-18T04:23:49;3.20;;;2.20;;
12480;SDS011;6305;48.398;11.762;2023-02-18T04:26:16;3.20;;;2.20;;
12480;SDS011;6305;48.398;11.762;2023-02-18T04:28:44;3.60;;;2.28;;
12480;SDS011;6305;48.398;11.762;2023-02-18T04:31:11;2.78;;;1.90;;
12480;SDS011;6305;48.398;11.762;2023-02-18T04:33:37;2.88;;;2.10;;
12480;SDS011;6305;48.398;11.762;2023-02-18T04:36:05;2.35;;;2.15;;
12480;SDS011;6305;48.398;11.762;2023-02-18T04:38:32;2.92;;;1.88;;
12480;SDS011;6305;48.398;11.762;2023-02-18T04:40:59;2.03;;;1.63;;
12480;SDS011;6305;48.398;11.762;2023-02-18T04:43:26;3.00;;;1.65;;
12480;SDS011;6305;48.398;11.762;2023-02-18T04:45:54;3.40;;;1.67;;
12480;SDS011;6305;48.398;11.762;2023-02-18T04:48:21;3.00;;;1.92;;
12480;SDS011;6305;48.398;11.762;2023-02-18T04:50:48;2.55;;;1.95;;
12480;SDS011;6305;48.398;11.762;2023-02-18T04:53:15;1.88;;;1.70;;
12480;SDS011;6305;48.398;11.762;2023-02-18T04:55:41;3.15;;;1.85;;
12480;SDS011;6305;48.398;11.762;2023-02-18T04:58:08;2.10;;;1.80;;
12480;SDS011;6305;48.398;11.762;2023-02-18T05:00:35;2.42;;;1.98;;
12480;SDS011;6305;48.398;11.762;2023-02-18T05:03:03;3.20;;;2.33;;
12480;SDS011;6305;48.398;11.762;2023-02-18T05:05:30;2.65;;;2.22;;
12480;SDS011;6305;48.398;11.762;2023-02-18T05:07:57;2.80;;;2.10;;
12480;SDS011;6305;48.398;11.762;2023-02-18T05:10:24;2.75;;;2.38;;
12480;SDS011;6305;48.398;11.762;2023-02-18T05:12:51;3.13;;;2.05;;
12480;SDS011;6305;48.398;11.762;2023-02-18T05:15:17;2.17;;;1.98;;
12480;SDS011;6305;48.398;11.762;2023-02-18T05:17:44;2.28;;;1.80;;
12480;SDS011;6305;48.398;11.762;2023-02-18T05:20:12;4.85;;;2.03;;
12480;SDS011;6305;48.398;11.762;2023-02-18T05:22:39;3.47;;;2.13;;
12480;SDS011;6305;48.398;11.762;2023-02-18T05:25:07;2.45;;;2.05;;
12480;SDS011;6305;48.398;11.762;2023-02-18T05:27:34;2.42;;;2.22;;
12480;SDS011;6305;48.398;11.762;2023-02-18T05:30:00;2.20;;;2.00;;
12480;SDS011;6305;48.398;11.762;2023-02-18T05:32:27;1.85;;;1.65;;
12480;SDS011;6305;48.398;11.762;2023-02-18T05:34:54;2.40;;;1.90;;
12480;SDS011;6305;48.398;11.762;2023-02-18T05:37:22;2.28;;;1.60;;
12480;SDS011;6305;48.398;11.762;2023-02-18T05:39:49;1.77;;;1.60;;
12480;SDS011;6305;48.398;11.762;2023-02-18T05:42:17;2.20;;;2.00;;
12480;SDS011;6305;48.398;11.762;2023-02-18T05:44:43;3.63;;;1.70;;
12480;SDS011;6305;48.398;11.762;2023-02-18T05:47:11;1.67;;;1.33;;
12480;SDS011;6305;48.398;11.762;2023-02-18T05:49:39;1.55;;;1.30;;
12480;SDS011;6305;48.398;11.762;2023-02-18T05:52:07;1.45;;;1.35;;
12480;SDS011;6305;48.398;11.762;2023-02-18T05:54:36;1.45;;;1.35;;
12480;SDS011;6305;48.398;11.762;2023-02-18T05:57:03;1.33;;;1.20;;
12480;SDS011;6305;48.398;11.762;2023-02-18T05:59:31;1.33;;;1.20;;
12480;SDS011;6305;48.398;11.762;2023-02-18T06:01:58;1.10;;;1.00;;
12480;SDS011;6305;48.398;11.762;2023-02-18T06:04:25;1.33;;;1.20;;
12480;SDS011;6305;48.398;11.762;2023-02-18T06:06:52;1.58;;;1.40;;
12480;SDS011;6305;48.398;11.762;2023-02-18T06:09:20;1.35;;;1.25;;
12480;SDS011;6305;48.398;11.762;2023-02-18T06:11:48;1.48;;;1.20;;
12480;SDS011;6305;48.398;11.762;2023-02-18T06:14:15;1.23;;;1.13;;
12480;SDS011;6305;48.398;11.762;2023-02-18T06:16:42;1.77;;;1.30;;
12480;SDS011;6305;48.398;11.762;2023-02-18T06:19:09;1.30;;;1.20;;
12480;SDS011;6305;48.398;11.762;2023-02-18T06:21:36;1.20;;;1.10;;
12480;SDS011;6305;48.398;11.762;2023-02-18T06:24:03;1.90;;;1.23;;
12480;SDS011;6305;48.398;11.762;2023-02-18T06:26:30;1.65;;;1.10;;
12480;SDS011;6305;48.398;11.762;2023-02-18T06:28:59;1.30;;;1.20;;
12480;SDS011;6305;48.398;11.762;2023-02-18T06:31:26;1.30;;;1.20;;
12480;SDS011;6305;48.398;11.762;2023-02-18T06:33:54;1.77;;;1.20;;
12480;SDS011;6305;48.398;11.762;2023-02-18T06:36:20;1.55;;;1.20;;
12480;SDS011;6305;48.398;11.762;2023-02-18T06:38:47;1.45;;;1.35;;
12480;SDS011;6305;48.398;11.762;2023-02-18T06:41:14;1.50;;;1.17;;
12480;SDS011;6305;48.398;11.762;2023-02-18T06:43:41;1.58;;;1.20;;
12480;SDS011;6305;48.398;11.762;2023-02-18T06:46:09;2.65;;;1.00;;
12480;SDS011;6305;48.398;11.762;2023-02-18T06:48:36;1.60;;;1.13;;
12480;SDS011;6305;48.398;11.762;2023-02-18T06:51:03;2.63;;;1.15;;
12480;SDS011;6305;48.398;11.762;2023-02-18T06:53:31;1.77;;;1.15;;
12480;SDS011;6305;48.398;11.762;2023-02-18T06:55:58;1.48;;;1.08;;
12480;SDS011;6305;48.398;11.762;2023-02-18T06:58:25;1.27;;;1.17;;
12480;SDS011;6305;48.398;11.762;2023-02-18T07:00:51;1.15;;;1.05;;
12480;SDS011;6305;48.398;11.762;2023-02-18T07:03:20;1.67;;;1.17;;
12480;SDS011;6305;48.398;11.762;2023-02-18T07:05:46;1.20;;;1.10;;
12480;SDS011;6305;48.398;11.762;2023-02-18T07:08:13;1.65;;;1.10;;
12480;SDS011;6305;48.398;11.762;2023-02-18T07:10:40;1.63;;;1.20;;
12480;SDS011;6305;48.398;11.762;2023-02-18T07:13:07;1.30;;;1.20;;
12480;SDS011;6305;48.398;11.762;2023-02-18T07:15:34;1.42;;;1.33;;
12480;SDS011;6305;48.398;11.762;2023-02-18T07:18:01;2.22;;;1.00;;
12480;SDS011;6305;48.398;11.762;2023-02-18T07:20:29;1.10;;;1.00;;
12480;SDS011;6305;48.398;11.762;2023-02-18T07:22:56;1.90;;;1.10;;
12480;SDS011;6305;48.398;11.762;2023-02-18T07:25:23;1.95;;;1.23;;
12480;SDS011;6305;48.398;11.762;2023-02-18T07:27:50;1.65;;;1.10;;
12480;SDS011;6305;48.398;11.762;2023-02-18T07:30:17;1.30;;;1.00;;
12480;SDS011;6305;48.398;11.762;2023-02-18T07:32:45;2.88;;;1.20;;
12480;SDS011;6305;48.398;11.762;2023-02-18T07:35:12;2.38;;;1.10;;
12480;SDS011;6305;48.398;11.762;2023-02-18T07:37:43;1.85;;;1.05;;
12480;SDS011;6305;48.398;11.762;2023-02-18T07:40:12;1.73;;;1.35;;
12480;SDS011;6305;48.398;11.762;2023-02-18T07:42:40;2.38;;;1.10;;
12480;SDS011;6305;48.398;11.762;2023-02-18T07:45:07;1.20;;;1.00;;
12480;SDS011;6305;48.398;11.762;2023-02-18T07:47:35;1.10;;;1.00;;
12480;SDS011;6305;48.398;11.762;2023-02-18T07:50:02;1.05;;;0.95;;
12480;SDS011;6305;48.398;11.762;2023-02-18T07:52:29;2.03;;;1.08;;
12480;SDS011;6305;48.398;11.762;2023-02-18T07:54:58;1.50;;;0.90;;
12480;SDS011;6305;48.398;11.762;2023-02-18T07:57:25;1.17;;;1.08;;
12480;SDS011;6305;48.398;11.762;2023-02-18T07:59:51;1.15;;;1.05;;
12480;SDS011;6305;48.398;11.762;2023-02-18T08:02:19;1.00;;;0.90;;
12480;SDS011;6305;48.398;11.762;2023-02-18T08:04:47;1.83;;;0.85;;
12480;SDS011;6305;48.398;11.762;2023-02-18T08:07:15;1.05;;;0.88;;
12480;SDS011;6305;48.398;11.762;2023-02-18T08:09:44;1.05;;;0.88;;
12480;SDS011;6305;48.398;11.762;2023-02-18T08:12:12;1.17;;;1.08;;
12480;SDS011;6305;48.398;11.762;2023-02-18T08:14:39;1.00;;;0.90;;
12480;SDS011;6305;48.398;11.762;2023-02-18T08:17:06;1.77;;;1.00;;
12480;SDS011;6305;48.398;11.762;2023-02-18T08:19:33;1.10;;;0.80;;
12480;SDS011;6305;48.398;11.762;2023-02-18T08:22:00;1.58;;;1.10;;
12480;SDS011;6305;48.398;11.762;2023-02-18T08:24:27;1.52;;;0.90;;
12480;SDS011;6305;48.398;11.762;2023-02-18T08:26:55;0.88;;;0.88;;
12480;SDS011;6305;48.398;11.762;2023-02-18T08:29:23;1.27;;;0.80;;
12480;SDS011;6305;48.398;11.762;2023-02-18T08:31:50;0.88;;;0.80;;
12480;SDS011;6305;48.398;11.762;2023-02-18T08:34:18;0.70;;;0.70;;
12480;SDS011;6305;48.398;11.762;2023-02-18T08:36:45;3.47;;;0.90;;
12480;SDS011;6305;48.398;11.762;2023-02-18T08:39:12;1.02;;;0.90;;
12480;SDS011;6305;48.398;11.762;2023-02-18T08:41:39;0.60;;;0.60;;
12480;SDS011;6305;48.398;11.762;2023-02-18T08:44:06;0.77;;;0.75;;
12480;SDS011;6305;48.398;11.762;2023-02-18T08:46:34;0.68;;;0.68;;
12480;SDS011;6305;48.398;11.762;2023-02-18T08:49:01;0.75;;;0.70;;
12480;SDS011;6305;48.398;11.762;2023-02-18T08:51:28;1.27;;;0.70;;
12480;SDS011;6305;48.398;11.762;2023-02-18T08:53:55;2.15;;;0.90;;
12480;SDS011;6305;48.398;11.762;2023-02-18T08:56:22;0.70;;;0.70;;
12480;SDS011;6305;48.398;11.762;2023-02-18T08:58:49;0.95;;;0.80;;
12480;SDS011;6305;48.398;11.762;2023-02-18T09:01:16;1.02;;;0.85;;
12480;SDS011;6305;48.398;11.762;2023-02-18T09:03:46;0.73;;;0.73;;
12480;SDS011;6305;48.398;11.762;2023-02-18T09:06:13;1.33;;;1.00;;
12480;SDS011;6305;48.398;11.762;2023-02-18T09:08:40;1.17;;;0.93;;
12480;SDS011;6305;48.398;11.762;2023-02-18T09:11:07;0.90;;;0.90;;
12480;SDS011;6305;48.398;11.762;2023-02-18T09:13:35;1.40;;;0.90;;
12480;SDS011;6305;48.398;11.762;2023-02-18T09:16:03;1.73;;;0.82;;
12480;SDS011;6305;48.398;11.762;2023-02-18T09:18:32;0.90;;;0.80;;
12480;SDS011;6305;48.398;11.762;2023-02-18T09:21:02;0.80;;;0.80;;
12480;SDS011;6305;48.398;11.762;2023-02-18T09:23:31;0.95;;;0.80;;
12480;SDS011;6305;48.398;11.762;2023-02-18T09:25:59;1.08;;;0.80;;
12480;SDS011;6305;48.398;11.762;2023-02-18T09:28:26;1.23;;;0.98;;
12480;SDS011;6305;48.398;11.762;2023-02-18T09:30:53;0.85;;;0.85;;
12480;SDS011;6305;48.398;11.762;2023-02-18T09:33:19;0.93;;;0.82;;
12480;SDS011;6305;48.398;11.762;2023-02-18T09:35:46;0.77;;;0.70;;
12480;SDS011;6305;48.398;11.762;2023-02-18T09:38:15;1.20;;;0.90;;
12480;SDS011;6305;48.398;11.762;2023-02-18T09:40:43;0.70;;;0.70;;
12480;SDS011;6305;48.398;11.762;2023-02-18T09:43:17;0.80;;;0.80;;
12480;SDS011;6305;48.398;11.762;2023-02-18T09:45:48;0.75;;;0.70;;
12480;SDS011;6305;48.398;11.762;2023-02-18T09:48:18;1.45;;;0.80;;
12480;SDS011;6305;48.398;11.762;2023-02-18T09:50:50;0.75;;;0.60;;
12480;SDS011;6305;48.398;11.762;2023-02-18T09:53:20;1.70;;;0.70;;
12480;SDS011;6305;48.398;11.762;2023-02-18T09:55:48;0.70;;;0.70;;
12480;SDS011;6305;48.398;11.762;2023-02-18T09:58:18;1.08;;;0.73;;
12480;SDS011;6305;48.398;11.762;2023-02-18T10:00:47;0.90;;;0.75;;
12480;SDS011;6305;48.398;11.762;2023-02-18T10:03:18;3.90;;;0.90;;
12480;SDS011;6305;48.398;11.762;2023-02-18T10:05:50;1.30;;;0.77;;
12480;SDS011;6305;48.398;11.762;2023-02-18T10:08:23;0.95;;;0.70;;
12480;SDS011;6305;48.398;11.762;2023-02-18T10:10:51;1.25;;;0.63;;
12480;SDS011;6305;48.398;11.762;2023-02-18T10:13:19;1.38;;;0.80;;
12480;SDS011;6305;48.398;11.762;2023-02-18T10:15:48;1.70;;;0.80;;
12480;SDS011;6305;48.398;11.762;2023-02-18T10:18:21;0.80;;;0.75;;
12480;SDS011;6305;48.398;11.762;2023-02-18T10:20:52;1.15;;;0.93;;
12480;SDS011;6305;48.398;11.762;2023-02-18T10:23:27;1.00;;;0.90;;
12480;SDS011;6305;48.398;11.762;2023-02-18T10:25:56;0.90;;;0.80;;
12480;SDS011;6305;48.398;11.762;2023-02-18T10:28:26;1.10;;;0.80;;
12480;SDS011;6305;48.398;11.762;2023-02-18T10:30:55;0.82;;;0.70;;
12480;SDS011;6305;48.398;11.762;2023-02-18T10:33:31;1.75;;;0.80;;
12480;SDS011;6305;48.398;11.762;2023-02-18T10:36:02;0.70;;;0.70;;
12480;SDS011;6305;48.398;11.762;2023-02-18T10:38:40;0.80;;;0.70;;
12480;SDS011;6305;48.398;11.762;2023-02-18T10:41:27;1.00;;;0.60;;
12480;SDS011;6305;48.398;11.762;2023-02-18T10:44:03;1.55;;;0.70;;
12480;SDS011;6305;48.398;11.762;2023-02-18T10:46:36;1.67;;;0.70;;
12480;SDS011;6305;48.398;11.762;2023-02-18T10:49:15;1.27;;;0.75;;
12480;SDS011;6305;48.398;11.762;2023-02-18T10:51:59;1.25;;;0.70;;
12480;SDS011;6305;48.398;11.762;2023-02-18T10:54:47;1.75;;;0.80;;
12480;SDS011;6305;48.398;11.762;2023-02-18T10:57:16;1.02;;;0.60;;
12480;SDS011;6305;48.398;11.762;2023-02-18T10:59:53;0.95;;;0.70;;
12480;SDS011;6305;48.398;11.762;2023-02-18T11:02:23;0.88;;;0.82;;
12480;SDS011;6305;48.398;11.762;2023-02-18T11:04:55;1.17;;;0.70;;
12480;SDS011;6305;48.398;11.762;2023-02-18T11:07:25;2.10;;;0.82;;
12480;SDS011;6305;48.398;11.762;2023-02-18T11:10:14;0.82;;;0.75;;
12480;SDS011;6305;48.398;11.762;2023-02-18T11:12:43;1.35;;;0.70;;
12480;SDS011;6305;48.398;11.762;2023-02-18T11:15:17;1.00;;;0.80;;
12480;SDS011;6305;48.398;11.762;2023-02-18T11:17:47;2.10;;;0.77;;
12480;SDS011;6305;48.398;11.762;2023-02-18T11:20:21;2.92;;;0.88;;
12480;SDS011;6305;48.398;11.762;2023-02-18T11:22:57;1.83;;;0.82;;
12480;SDS011;6305;48.398;11.762;2023-02-18T11:25:41;2.17;;;0.70;;
12480;SDS011;6305;48.398;11.762;2023-02-18T11:28:31;1.60;;;0.60;;
12480;SDS011;6305;48.398;11.762;2023-02-18T11:31:05;0.82;;;0.80;;
12480;SDS011;6305;48.398;11.762;2023-02-18T11:33:34;0.60;;;0.60;;
12480;SDS011;6305;48.398;11.762;2023-02-18T11:36:09;2.72;;;0.93;;
12480;SDS011;6305;48.398;11.762;2023-02-18T11:38:45;0.80;;;0.70;;
12480;SDS011;6305;48.398;11.762;2023-02-18T11:41:17;1.13;;;0.65;;
12480;SDS011;6305;48.398;11.762;2023-02-18T11:43:47;1.13;;;0.80;;
12480;SDS011;6305;48.398;11.762;2023-02-18T11:46:16;0.70;;;0.70;;
12480;SDS011;6305;48.398;11.762;2023-02-18T11:48:45;1.45;;;0.82;;
12480;SDS011;6305;48.398;11.762;2023-02-18T11:51:16;1.48;;;0.90;;
12480;SDS011;6305;48.398;11.762;2023-02-18T11:53:55;1.48;;;0.90;;
12480;SDS011;6305;48.398;11.762;2023-02-18T11:56:26;1.88;;;0.77;;
12480;SDS011;6305;48.398;11.762;2023-02-18T11:58:55;2.78;;;0.98;;
12480;SDS011;6305;48.398;11.762;2023-02-18T12:01:26;0.65;;;0.65;;
12480;SDS011;6305;48.398;11.762;2023-02-18T12:04:04;0.82;;;0.80;;
12480;SDS011;6305;48.398;11.762;2023-02-18T12:06:37;0.85;;;0.80;;
12480;SDS011;6305;48.398;11.762;2023-02-18T12:09:13;2.67;;;0.80;;
12480;SDS011;6305;48.398;11.762;2023-02-18T12:11:48;0.80;;;0.70;;
12480;SDS011;6305;48.398;11.762;2023-02-18T12:14:18;1.67;;;0.70;;
12480;SDS011;6305;48.398;11.762;2023-02-18T12:16:51;0.80;;;0.70;;
12480;SDS011;6305;48.398;11.762;2023-02-18T12:19:38;1.02;;;0.75;;
12480;SDS011;6305;48.398;11.762;2023-02-18T12:22:21;10.38;;;9.23;;
12480;SDS011;6305;48.398;11.762;2023-02-18T12:25:01;1.85;;;0.98;;
12480;SDS011;6305;48.398;11.762;2023-02-18T12:27:38;1.17;;;0.80;;
12480;SDS011;6305;48.398;11.762;2023-02-18T12:30:22;2.50;;;0.80;;
12480;SDS011;6305;48.398;11.762;2023-02-18T12:32:59;2.35;;;0.98;;
12480;SDS011;6305;48.398;11.762;2023-02-18T12:35:39;0.80;;;0.68;;
12480;SDS011;6305;48.398;11.762;2023-02-18T12:38:24;1.33;;;0.80;;
12480;SDS011;6305;48.398;11.762;2023-02-18T12:41:12;0.95;;;0.90;;
12480;SDS011;6305;48.398;11.762;2023-02-18T12:43:53;1.27;;;0.90;;
12480;SDS011;6305;48.398;11.762;2023-02-18T12:46:29;0.90;;;0.90;;
12480;SDS011;6305;48.398;11.762;2023-02-18T12:49:19;1.00;;;0.85;;
12480;SDS011;6305;48.398;11.762;2023-02-18T12:52:05;0.70;;;0.60;;
12480;SDS011;6305;48.398;11.762;2023-02-18T12:54:51;0.80;;;0.70;;
12480;SDS011;6305;48.398;11.762;2023-02-18T12:57:38;1.15;;;0.80;;
12480;SDS011;6305;48.398;11.762;2023-02-18T13:03:10;1.40;;;0.90;;
12480;SDS011;6305;48.398;11.762;2023-02-18T13:05:55;1.42;;;0.80;;
12480;SDS011;6305;48.398;11.762;2023-02-18T13:08:30;0.93;;;0.68;;
12480;SDS011;6305;48.398;11.762;2023-02-18T13:11:13;1.55;;;0.70;;
12480;SDS011;6305;48.398;11.762;2023-02-18T13:13:46;0.55;;;0.55;;
12480;SDS011;6305;48.398;11.762;2023-02-18T13:16:21;0.82;;;0.60;;
12480;SDS011;6305;48.398;11.762;2023-02-18T13:18:59;1.40;;;0.60;;
12480;SDS011;6305;48.398;11.762;2023-02-18T13:21:30;2.22;;;0.75;;
12480;SDS011;6305;48.398;11.762;2023-02-18T13:23:58;0.90;;;0.80;;
12480;SDS011;6305;48.398;11.762;2023-02-18T13:26:28;0.70;;;0.65;;
12480;SDS011;6305;48.398;11.762;2023-02-18T13:29:01;2.20;;;0.70;;
12480;SDS011;6305;48.398;11.762;2023-02-18T13:31:51;0.60;;;0.60;;
12480;SDS011;6305;48.398;11.762;2023-02-18T13:34:28;1.35;;;0.77;;
12480;SDS011;6305;48.398;11.762;2023-02-18T13:37:02;1.38;;;0.60;;
12480;SDS011;6305;48.398;11.762;2023-02-18T13:39:33;2.45;;;0.82;;
12480;SDS011;6305;48.398;11.762;2023-02-18T13:42:18;1.35;;;0.63;;
12480;SDS011;6305;48.398;11.762;2023-02-18T13:45:05;0.80;;;0.80;;
12480;SDS011;6305;48.398;11.762;2023-02-18T13:47:50;0.90;;;0.80;;
12480;SDS011;6305;48.398;11.762;2023-02-18T13:50:26;0.70;;;0.70;;
12480;SDS011;6305;48.398;11.762;2023-02-18T13:53:19;2.63;;;0.75;;
12480;SDS011;6305;48.398;11.762;2023-02-18T13:55:55;1.08;;;0.68;;
12480;SDS011;6305;48.398;11.762;2023-02-18T13:58:28;0.93;;;0.75;;
12480;SDS011;6305;48.398;11.762;2023-02-18T14:00:59;0.93;;;0.90;;
12480;SDS011;6305;48.398;11.762;2023-02-18T14:03:50;1.30;;;0.73;;
12480;SDS011;6305;48.398;11.762;2023-02-18T14:06:23;0.90;;;0.77;;
12480;SDS011;6305;48.398;11.762;2023-02-18T14:09:01;0.75;;;0.70;;
12480;SDS011;6305;48.398;11.762;2023-02-18T14:11:40;0.80;;;0.75;;
12480;SDS011;6305;48.398;11.762;2023-02-18T14:14:13;1.20;;;0.80;;
12480;SDS011;6305;48.398;11.762;2023-02-18T14:17:22;1.08;;;0.70;;
12480;SDS011;6305;48.398;11.762;2023-02-18T14:23:02;2.05;;;0.70;;
12480;SDS011;6305;48.398;11.762;2023-02-18T14:25:39;1.25;;;0.60;;
12480;SDS011;6305;48.398;11.762;2023-02-18T14:31:15;0.63;;;0.63;;
12480;SDS011;6305;48.398;11.762;2023-02-18T14:33:54;0.70;;;0.70;;
12480;SDS011;6305;48.398;11.762;2023-02-18T14:36:38;1.77;;;0.90;;
12480;SDS011;6305;48.398;11.762;2023-02-18T14:39:13;1.35;;;0.82;;
12480;SDS011;6305;48.398;11.762;2023-02-18T14:41:55;1.08;;;0.90;;
12480;SDS011;6305;48.398;11.762;2023-02-18T14:44:32;2.72;;;0.80;;
12480;SDS011;6305;48.398;11.762;2023-02-18T14:47:14;0.70;;;0.70;;
12480;SDS011;6305;48.398;11.762;2023-02-18T14:49:50;1.45;;;0.65;;
12480;SDS011;6305;48.398;11.762;2023-02-18T14:52:22;1.02;;;0.85;;
12480;SDS011;6305;48.398;11.762;2023-02-18T14:54:56;1.98;;;0.80;;
12480;SDS011;6305;48.398;11.762;2023-02-18T14:57:26;1.08;;;0.88;;
12480;SDS011;6305;48.398;11.762;2023-02-18T14:59:59;2.00;;;0.90;;
12480;SDS011;6305;48.398;11.762;2023-02-18T15:02:26;1.38;;;0.88;;
12480;SDS011;6305;48.398;11.762;2023-02-18T15:05:04;1.55;;;1.45;;
12480;SDS011;6305;48.398;11.762;2023-02-18T15:07:37;1.42;;;0.80;;
12480;SDS011;6305;48.398;11.762;2023-02-18T15:10:10;1.35;;;0.88;;
12480;SDS011;6305;48.398;11.762;2023-02-18T15:12:39;1.30;;;0.88;;
12480;SDS011;6305;48.398;11.762;2023-02-18T15:15:08;0.90;;;0.77;;
12480;SDS011;6305;48.398;11.762;2023-02-18T15:17:43;0.98;;;0.70;;
12480;SDS011;6305;48.398;11.762;2023-02-18T15:20:12;1.25;;;0.90;;
12480;SDS011;6305;48.398;11.762;2023-02-18T15:22:42;2.78;;;0.90;;
12480;SDS011;6305;48.398;11.762;2023-02-18T15:32:56;0.80;;;0.80;;
12480;SDS011;6305;48.398;11.762;2023-02-18T15:35:27;0.88;;;0.70;;